createdAt,value
2023-01-08T00:00:31.574Z,977.57
2023-01-08T00:01:31.655Z,977.53
2023-01-08T00:02:31.533Z,977.54
2023-01-08T00:03:31.488Z,977.49
2023-01-08T00:04:31.615Z,977.47
2023-01-08T00:05:31.320Z,977.47
2023-01-08T00:06:31.339Z,977.48
2023-01-08T00:07:31.301Z,977.49
2023-01-08T00:08:31.268Z,977.49
2023-01-08T00:09:31.298Z,977.41
2023-01-08T00:10:31.349Z,977.44
2023-01-08T00:11:31.291Z,977.44
2023-01-08T00:12:31.452Z,977.41
2023-01-08T00:13:31.313Z,977.44
2023-01-08T00:14:31.227Z,977.45
2023-01-08T00:15:31.300Z,977.46
2023-01-08T00:16:31.285Z,977.51
2023-01-08T00:17:31.314Z,977.48
2023-01-08T00:18:31.171Z,977.47
2023-01-08T00:19:31.313Z,977.44
2023-01-08T00:20:31.157Z,977.42
2023-01-08T00:21:31.293Z,977.40
2023-01-08T00:22:31.157Z,977.40
2023-01-08T00:23:31.069Z,977.35
2023-01-08T00:24:31.142Z,977.36
2023-01-08T00:25:31.024Z,977.36
2023-01-08T00:26:31.086Z,977.33
2023-01-08T00:27:31.125Z,977.33
2023-01-08T00:28:31.141Z,977.29
2023-01-08T00:29:30.988Z,977.30
2023-01-08T00:30:31.252Z,977.26
2023-01-08T00:31:30.991Z,977.26
2023-01-08T00:32:31.064Z,977.28
2023-01-08T00:33:30.976Z,977.28
2023-01-08T00:34:31.077Z,977.24
2023-01-08T00:35:30.970Z,977.25
2023-01-08T00:36:30.935Z,977.29
2023-01-08T00:37:30.959Z,977.29
2023-01-08T00:38:30.908Z,977.32
2023-01-08T00:39:30.996Z,977.33
2023-01-08T00:40:30.897Z,977.32
2023-01-08T00:41:30.813Z,977.33
2023-01-08T00:42:30.851Z,977.36
2023-01-08T00:43:31.078Z,977.32
2023-01-08T00:44:30.824Z,977.30
2023-01-08T00:45:30.933Z,977.38
2023-01-08T00:46:30.825Z,977.39
2023-01-08T00:47:30.760Z,977.45
2023-01-08T00:48:30.832Z,977.44
2023-01-08T00:49:31.031Z,977.37
2023-01-08T00:50:30.810Z,977.39
2023-01-08T00:51:30.988Z,977.38
2023-01-08T00:52:30.700Z,977.34
2023-01-08T00:53:30.702Z,977.37
2023-01-08T00:54:30.795Z,977.35
2023-01-08T00:55:30.673Z,977.39
2023-01-08T00:56:30.819Z,977.34
2023-01-08T00:57:30.688Z,977.33
2023-01-08T00:58:30.816Z,977.36
2023-01-08T00:59:30.674Z,977.31
2023-01-08T01:00:30.939Z,977.35
2023-01-08T01:01:30.792Z,977.27
2023-01-08T01:02:30.548Z,977.28
2023-01-08T01:03:30.739Z,977.33
2023-01-08T01:04:30.870Z,977.30
2023-01-08T01:05:30.765Z,977.29
2023-01-08T01:06:30.561Z,977.29
2023-01-08T01:07:30.654Z,977.28
2023-01-08T01:08:30.530Z,977.31
2023-01-08T01:09:30.695Z,977.32
2023-01-08T01:10:30.574Z,977.34
2023-01-08T01:11:30.432Z,977.33
2023-01-08T01:12:30.502Z,977.36
2023-01-08T01:13:30.454Z,977.37
2023-01-08T01:14:30.506Z,977.37
2023-01-08T01:15:31.000Z,977.36
2023-01-08T01:16:30.604Z,977.35
2023-01-08T01:17:30.354Z,977.40
2023-01-08T01:18:30.330Z,977.36
2023-01-08T01:19:30.339Z,977.37
2023-01-08T01:20:30.402Z,977.36
2023-01-08T01:21:30.310Z,977.29
2023-01-08T01:22:30.570Z,977.36
2023-01-08T01:23:30.300Z,977.36
2023-01-08T01:24:30.544Z,977.34
2023-01-08T01:25:30.462Z,977.36
2023-01-08T01:26:30.518Z,977.30
2023-01-08T01:27:30.340Z,977.34
2023-01-08T01:28:30.508Z,977.28
2023-01-08T01:29:30.332Z,977.29
2023-01-08T01:30:30.260Z,977.32
2023-01-08T01:31:30.439Z,977.30
2023-01-08T01:32:30.195Z,977.29
2023-01-08T01:33:30.358Z,977.31
2023-01-08T01:34:30.188Z,977.28
2023-01-08T01:35:30.148Z,977.28
2023-01-08T01:36:30.258Z,977.22
2023-01-08T01:37:30.353Z,977.22
2023-01-08T01:38:30.059Z,977.20
2023-01-08T01:39:30.023Z,977.22
2023-01-08T01:40:30.194Z,977.22
2023-01-08T01:41:30.146Z,977.20
2023-01-08T01:42:29.988Z,977.17
2023-01-08T01:43:30.033Z,977.18
2023-01-08T01:44:29.995Z,977.16
2023-01-08T01:45:30.027Z,977.12
2023-01-08T01:46:30.038Z,977.13
2023-01-08T01:47:30.044Z,977.12
2023-01-08T01:48:29.947Z,977.15
2023-01-08T01:49:29.950Z,977.11
2023-01-08T01:50:29.974Z,977.08
2023-01-08T01:51:30.103Z,977.16
2023-01-08T01:52:29.941Z,977.17
2023-01-08T01:53:30.635Z,977.16
2023-01-08T01:54:29.868Z,977.16
2023-01-08T01:55:29.962Z,977.19
2023-01-08T01:56:29.894Z,977.18
2023-01-08T01:57:29.885Z,977.14
2023-01-08T01:58:29.847Z,977.15
2023-01-08T01:59:29.805Z,977.13
2023-01-08T02:00:29.804Z,977.07
2023-01-08T02:01:29.999Z,977.04
2023-01-08T02:02:29.842Z,977.05
2023-01-08T02:03:29.717Z,977.03
2023-01-08T02:04:29.730Z,976.98
2023-01-08T02:05:29.672Z,977.05
2023-01-08T02:06:29.848Z,977.03
2023-01-08T02:07:29.692Z,977.02
2023-01-08T02:08:29.763Z,977.07
2023-01-08T02:09:30.312Z,976.95
2023-01-08T02:10:29.688Z,977.01
2023-01-08T02:11:29.745Z,977.04
2023-01-08T02:12:29.708Z,977.02
2023-01-08T02:13:29.708Z,977.00
2023-01-08T02:14:29.601Z,976.96
2023-01-08T02:15:29.593Z,976.97
2023-01-08T02:16:29.590Z,976.97
2023-01-08T02:17:29.610Z,976.98
2023-01-08T02:18:29.562Z,976.88
2023-01-08T02:19:29.566Z,976.94
2023-01-08T02:20:29.751Z,976.90
2023-01-08T02:21:29.477Z,976.92
2023-01-08T02:22:29.524Z,976.85
2023-01-08T02:23:29.669Z,976.88
2023-01-08T02:24:29.531Z,976.89
2023-01-08T02:25:29.447Z,976.92
2023-01-08T02:26:29.463Z,976.89
2023-01-08T02:27:29.494Z,976.84
2023-01-08T02:28:29.527Z,976.84
2023-01-08T02:29:29.425Z,976.73
2023-01-08T02:30:29.560Z,976.70
2023-01-08T02:31:29.399Z,976.74
2023-01-08T02:32:29.386Z,976.59
2023-01-08T02:33:29.516Z,976.58
2023-01-08T02:34:29.373Z,976.56
2023-01-08T02:35:29.347Z,976.62
2023-01-08T02:36:29.310Z,976.61
2023-01-08T02:37:29.387Z,976.63
2023-01-08T02:38:29.443Z,976.62
2023-01-08T02:39:29.382Z,976.67
2023-01-08T02:40:29.275Z,976.65
2023-01-08T02:41:29.267Z,976.72
2023-01-08T02:42:29.537Z,976.71
2023-01-08T02:43:29.236Z,976.66
2023-01-08T02:44:29.212Z,976.68
2023-01-08T02:45:29.748Z,976.71
2023-01-08T02:46:29.273Z,976.62
2023-01-08T02:47:29.180Z,976.62
2023-01-08T02:48:29.269Z,976.61
2023-01-08T02:49:29.382Z,976.58
2023-01-08T02:50:29.087Z,976.57
2023-01-08T02:51:29.154Z,976.60
2023-01-08T02:52:29.114Z,976.65
2023-01-08T02:53:29.122Z,976.63
2023-01-08T02:54:29.165Z,976.67
2023-01-08T02:55:29.118Z,976.69
2023-01-08T02:56:29.072Z,976.67
2023-01-08T02:57:29.058Z,976.66
2023-01-08T02:58:29.087Z,976.68
2023-01-08T02:59:29.087Z,976.65
2023-01-08T03:00:29.000Z,976.62
2023-01-08T03:01:29.229Z,976.60
2023-01-08T03:02:28.981Z,976.57
2023-01-08T03:03:28.952Z,976.51
2023-01-08T03:04:29.226Z,976.51
2023-01-08T03:05:29.063Z,976.55
2023-01-08T03:06:28.919Z,976.49
2023-01-08T03:07:29.061Z,976.45
2023-01-08T03:08:28.971Z,976.45
2023-01-08T03:09:29.062Z,976.46
2023-01-08T03:10:29.042Z,976.43
2023-01-08T03:11:28.853Z,976.47
2023-01-08T03:12:28.882Z,976.49
2023-01-08T03:13:28.883Z,976.39
2023-01-08T03:14:28.827Z,976.39
2023-01-08T03:15:29.148Z,976.36
2023-01-08T03:16:28.828Z,976.34
2023-01-08T03:17:28.796Z,976.34
2023-01-08T03:18:28.889Z,976.28
2023-01-08T03:19:28.847Z,976.30
2023-01-08T03:20:29.013Z,976.28
2023-01-08T03:21:28.767Z,976.17
2023-01-08T03:22:28.889Z,976.22
2023-01-08T03:23:28.676Z,976.22
2023-01-08T03:24:28.765Z,976.16
2023-01-08T03:25:28.776Z,976.13
2023-01-08T03:26:28.765Z,976.12
2023-01-08T03:27:28.743Z,976.08
2023-01-08T03:28:28.675Z,976.12
2023-01-08T03:29:28.803Z,976.03
2023-01-08T03:30:28.769Z,976.03
2023-01-08T03:31:28.801Z,976.06
2023-01-08T03:32:28.584Z,976.03
2023-01-08T03:33:28.740Z,976.07
2023-01-08T03:34:28.590Z,976.11
2023-01-08T03:35:28.727Z,976.07
2023-01-08T03:36:28.898Z,976.11
2023-01-08T03:37:28.752Z,976.12
2023-01-08T03:38:28.572Z,976.09
2023-01-08T03:39:28.542Z,976.14
2023-01-08T03:40:28.581Z,976.11
2023-01-08T03:41:28.536Z,976.11
2023-01-08T03:42:28.517Z,976.10
2023-01-08T03:43:28.428Z,976.10
2023-01-08T03:44:28.577Z,976.05
2023-01-08T03:45:28.434Z,976.08
2023-01-08T03:46:28.466Z,976.09
2023-01-08T03:47:28.449Z,976.07
2023-01-08T03:48:28.585Z,976.02
2023-01-08T03:49:28.429Z,976.02
2023-01-08T03:50:28.574Z,976.07
2023-01-08T03:51:28.383Z,976.06
2023-01-08T03:52:28.431Z,976.17
2023-01-08T03:53:28.311Z,976.18
2023-01-08T03:54:28.339Z,976.23
2023-01-08T03:55:28.474Z,976.25
2023-01-08T03:56:28.297Z,976.26
2023-01-08T03:57:28.371Z,976.22
2023-01-08T03:58:28.280Z,976.21
2023-01-08T03:59:28.446Z,976.15
2023-01-08T04:00:28.271Z,976.17
2023-01-08T04:01:28.565Z,976.14
2023-01-08T04:02:28.516Z,976.08
2023-01-08T04:03:28.266Z,976.08
2023-01-08T04:04:28.323Z,976.09
2023-01-08T04:05:28.158Z,976.02
2023-01-08T04:06:28.334Z,975.99
2023-01-08T04:07:28.174Z,975.96
2023-01-08T04:08:28.271Z,976.03
2023-01-08T04:09:28.494Z,975.99
2023-01-08T04:10:28.247Z,976.04
2023-01-08T04:11:28.156Z,976.09
2023-01-08T04:12:28.282Z,976.04
2023-01-08T04:13:28.164Z,976.07
2023-01-08T04:14:28.049Z,976.05
2023-01-08T04:15:28.187Z,976.06
2023-01-08T04:16:28.283Z,975.95
2023-01-08T04:17:28.102Z,975.90
2023-01-08T04:18:28.069Z,975.85
2023-01-08T04:19:27.956Z,975.84
2023-01-08T04:20:27.998Z,975.88
2023-01-08T04:21:27.956Z,975.80
2023-01-08T04:22:27.919Z,975.78
2023-01-08T04:23:28.182Z,975.77
2023-01-08T04:24:27.946Z,975.85
2023-01-08T04:25:27.893Z,975.86
2023-01-08T04:26:27.939Z,975.84
2023-01-08T04:27:27.895Z,975.79
2023-01-08T04:28:27.841Z,975.77
2023-01-08T04:29:28.154Z,975.76
2023-01-08T04:30:27.950Z,975.74
2023-01-08T04:31:28.227Z,975.76
2023-01-08T04:32:27.988Z,975.78
2023-01-08T04:33:27.811Z,975.71
2023-01-08T04:34:27.996Z,975.76
2023-01-08T04:35:27.835Z,975.70
2023-01-08T04:36:27.790Z,975.69
2023-01-08T04:37:27.791Z,975.64
2023-01-08T04:38:27.721Z,975.60
2023-01-08T04:39:27.905Z,975.60
2023-01-08T04:40:27.933Z,975.64
2023-01-08T04:41:27.805Z,975.61
2023-01-08T04:42:27.957Z,975.57
2023-01-08T04:43:27.770Z,975.58
2023-01-08T04:44:27.955Z,975.55
2023-01-08T04:45:27.776Z,975.56
2023-01-08T04:46:27.707Z,975.55
2023-01-08T04:47:27.608Z,975.54
2023-01-08T04:48:27.614Z,975.52
2023-01-08T04:49:27.614Z,975.54
2023-01-08T04:50:27.634Z,975.52
2023-01-08T04:51:27.557Z,975.51
2023-01-08T04:52:27.611Z,975.50
2023-01-08T04:53:27.777Z,975.46
2023-01-08T04:54:27.566Z,975.38
2023-01-08T04:55:27.516Z,975.37
2023-01-08T04:56:27.652Z,975.37
2023-01-08T04:57:27.800Z,975.33
2023-01-08T04:58:27.464Z,975.33
2023-01-08T04:59:27.450Z,975.31
2023-01-08T05:00:27.744Z,975.31
2023-01-08T05:01:27.571Z,975.21
2023-01-08T05:02:27.637Z,975.21
2023-01-08T05:03:27.532Z,975.22
2023-01-08T05:04:27.613Z,975.17
2023-01-08T05:05:27.549Z,975.14
2023-01-08T05:06:27.406Z,975.07
2023-01-08T05:07:27.471Z,975.08
2023-01-08T05:08:27.647Z,975.15
2023-01-08T05:09:27.477Z,975.13
2023-01-08T05:10:27.392Z,975.16
2023-01-08T05:11:27.307Z,975.18
2023-01-08T05:12:27.318Z,975.15
2023-01-08T05:13:27.457Z,975.13
2023-01-08T05:14:27.288Z,975.15
2023-01-08T05:15:27.406Z,975.11
2023-01-08T05:16:27.207Z,975.11
2023-01-08T05:17:27.279Z,975.13
2023-01-08T05:18:27.317Z,975.13
2023-01-08T05:19:27.530Z,975.09
2023-01-08T05:20:27.302Z,975.09
2023-01-08T05:21:27.258Z,975.11
2023-01-08T05:22:27.324Z,975.08
2023-01-08T05:23:27.148Z,975.05
2023-01-08T05:24:27.177Z,975.12
2023-01-08T05:25:27.126Z,975.07
2023-01-08T05:26:27.395Z,975.09
2023-01-08T05:27:27.145Z,975.09
2023-01-08T05:28:27.050Z,975.09
2023-01-08T05:29:27.119Z,975.06
2023-01-08T05:30:27.348Z,975.04
2023-01-08T05:31:27.285Z,975.09
2023-01-08T05:32:27.027Z,975.08
2023-01-08T05:33:27.150Z,975.07
2023-01-08T05:34:26.978Z,975.11
2023-01-08T05:35:26.967Z,975.11
2023-01-08T05:36:27.057Z,975.08
2023-01-08T05:37:27.128Z,975.12
2023-01-08T05:38:26.987Z,975.11
2023-01-08T05:39:26.939Z,975.10
2023-01-08T05:40:26.994Z,975.06
2023-01-08T05:41:26.972Z,975.07
2023-01-08T05:42:26.880Z,975.10
2023-01-08T05:43:26.852Z,975.11
2023-01-08T05:44:26.992Z,975.06
2023-01-08T05:45:27.144Z,975.08
2023-01-08T05:46:27.385Z,975.12
2023-01-08T05:47:26.804Z,975.10
2023-01-08T05:48:26.809Z,975.15
2023-01-08T05:49:26.821Z,975.15
2023-01-08T05:50:26.753Z,975.11
2023-01-08T05:51:26.830Z,975.17
2023-01-08T05:52:27.050Z,975.14
2023-01-08T05:53:26.807Z,975.09
2023-01-08T05:54:27.056Z,975.11
2023-01-08T05:55:26.810Z,975.10
2023-01-08T05:56:26.668Z,975.09
2023-01-08T05:57:26.799Z,975.07
2023-01-08T05:58:26.689Z,975.09
2023-01-08T05:59:26.642Z,975.12
2023-01-08T06:00:26.668Z,975.17
2023-01-08T06:01:26.656Z,975.21
2023-01-08T06:02:26.758Z,975.27
2023-01-08T06:03:26.852Z,975.26
2023-01-08T06:04:26.726Z,975.29
2023-01-08T06:05:26.571Z,975.28
2023-01-08T06:06:26.983Z,975.30
2023-01-08T06:07:26.882Z,975.27
2023-01-08T06:08:26.663Z,975.25
2023-01-08T06:09:26.542Z,975.26
2023-01-08T06:10:26.643Z,975.25
2023-01-08T06:11:26.503Z,975.25
2023-01-08T06:12:26.512Z,975.31
2023-01-08T06:13:26.588Z,975.31
2023-01-08T06:14:26.639Z,975.35
2023-01-08T06:15:26.621Z,975.37
2023-01-08T06:16:26.652Z,975.35
2023-01-08T06:17:26.484Z,975.34
2023-01-08T06:18:26.420Z,975.33
2023-01-08T06:19:26.613Z,975.22
2023-01-08T06:20:26.387Z,975.20
2023-01-08T06:21:26.514Z,975.23
2023-01-08T06:22:26.368Z,975.16
2023-01-08T06:23:26.471Z,975.21
2023-01-08T06:24:26.371Z,975.21
2023-01-08T06:25:26.323Z,975.20
2023-01-08T06:26:26.369Z,975.20
2023-01-08T06:27:26.538Z,975.13
2023-01-08T06:28:26.355Z,975.18
2023-01-08T06:29:26.591Z,975.12
2023-01-08T06:30:26.371Z,975.07
2023-01-08T06:31:26.319Z,975.14
2023-01-08T06:32:26.333Z,975.06
2023-01-08T06:33:26.513Z,975.06
2023-01-08T06:34:26.178Z,974.99
2023-01-08T06:35:26.243Z,974.98
2023-01-08T06:36:26.162Z,974.94
2023-01-08T06:37:26.168Z,974.92
2023-01-08T06:38:26.117Z,974.98
2023-01-08T06:39:26.136Z,974.97
2023-01-08T06:40:26.128Z,974.91
2023-01-08T06:41:26.243Z,974.86
2023-01-08T06:42:26.158Z,974.80
2023-01-08T06:43:26.178Z,974.78
2023-01-08T06:44:26.374Z,974.78
2023-01-08T06:45:26.192Z,974.76
2023-01-08T06:46:26.223Z,974.74
2023-01-08T06:47:26.036Z,974.73
2023-01-08T06:48:26.082Z,974.77
2023-01-08T06:49:26.167Z,974.72
2023-01-08T06:50:26.041Z,974.69
2023-01-08T06:51:25.952Z,974.68
2023-01-08T06:52:26.083Z,974.64
2023-01-08T06:53:26.183Z,974.73
2023-01-08T06:54:26.009Z,974.65
2023-01-08T06:55:26.171Z,974.73
2023-01-08T06:56:26.046Z,974.67
2023-01-08T06:57:26.003Z,974.67
2023-01-08T06:58:25.889Z,974.74
2023-01-08T06:59:25.904Z,974.71
2023-01-08T07:00:26.077Z,974.71
2023-01-08T07:01:25.996Z,974.66
2023-01-08T07:02:26.218Z,974.71
2023-01-08T07:03:26.009Z,974.70
2023-01-08T07:04:25.840Z,974.68
2023-01-08T07:05:25.749Z,974.67
2023-01-08T07:06:25.825Z,974.71
2023-01-08T07:07:25.840Z,974.66
2023-01-08T07:08:25.821Z,974.67
2023-01-08T07:09:25.763Z,974.68
2023-01-08T07:10:25.775Z,974.71
2023-01-08T07:11:25.733Z,974.71
2023-01-08T07:12:25.714Z,974.68
2023-01-08T07:13:25.709Z,974.73
2023-01-08T07:14:25.667Z,974.79
2023-01-08T07:15:25.672Z,974.79
2023-01-08T07:16:25.782Z,974.78
2023-01-08T07:17:25.628Z,974.79
2023-01-08T07:18:25.663Z,974.82
2023-01-08T07:19:25.815Z,974.81
2023-01-08T07:20:25.708Z,974.81
2023-01-08T07:21:25.598Z,974.80
2023-01-08T07:22:25.538Z,974.80
2023-01-08T07:23:25.644Z,974.79
2023-01-08T07:24:25.531Z,974.84
2023-01-08T07:25:26.040Z,974.90
2023-01-08T07:26:25.499Z,974.88
2023-01-08T07:27:25.513Z,974.92
2023-01-08T07:28:25.517Z,974.84
2023-01-08T07:29:25.458Z,974.84
2023-01-08T07:30:30.177Z,974.81
2023-01-08T07:31:25.476Z,974.79
2023-01-08T07:32:25.475Z,974.82
2023-01-08T07:33:25.459Z,974.84
2023-01-08T07:34:25.487Z,974.85
2023-01-08T07:35:25.408Z,974.82
2023-01-08T07:36:25.518Z,974.78
2023-01-08T07:37:25.508Z,974.82
2023-01-08T07:38:25.343Z,974.76
2023-01-08T07:39:25.560Z,974.81
2023-01-08T07:40:25.304Z,974.82
2023-01-08T07:41:25.306Z,974.79
2023-01-08T07:42:25.306Z,974.82
2023-01-08T07:43:25.265Z,974.83
2023-01-08T07:44:25.278Z,974.85
2023-01-08T07:45:25.291Z,974.88
2023-01-08T07:46:25.469Z,974.86
2023-01-08T07:47:25.244Z,974.87
2023-01-08T07:48:25.250Z,974.82
2023-01-08T07:49:25.234Z,974.85
2023-01-08T07:50:25.502Z,974.81
2023-01-08T07:51:25.223Z,974.85
2023-01-08T07:52:25.229Z,974.81
2023-01-08T07:53:25.263Z,974.79
2023-01-08T07:54:25.186Z,974.78
2023-01-08T07:55:25.345Z,974.72
2023-01-08T07:56:25.104Z,974.65
2023-01-08T07:57:25.215Z,974.69
2023-01-08T07:58:25.384Z,974.70
2023-01-08T07:59:25.068Z,974.68
2023-01-08T08:00:25.119Z,974.62
2023-01-08T08:01:25.204Z,974.60
2023-01-08T08:02:25.215Z,974.53
2023-01-08T08:03:25.094Z,974.57
2023-01-08T08:04:25.026Z,974.53
2023-01-08T08:05:25.010Z,974.52
2023-01-08T08:06:25.141Z,974.42
2023-01-08T08:07:25.233Z,974.43
2023-01-08T08:08:24.943Z,974.45
2023-01-08T08:09:25.246Z,974.51
2023-01-08T08:10:24.981Z,974.46
2023-01-08T08:11:24.979Z,974.45
2023-01-08T08:12:24.906Z,974.40
2023-01-08T08:13:24.964Z,974.33
2023-01-08T08:14:25.078Z,974.27
2023-01-08T08:15:24.926Z,974.22
2023-01-08T08:16:25.286Z,974.24
2023-01-08T08:17:24.903Z,974.29
2023-01-08T08:18:25.067Z,974.22
2023-01-08T08:19:24.875Z,974.23
2023-01-08T08:20:24.834Z,974.24
2023-01-08T08:21:24.808Z,974.22
2023-01-08T08:22:24.740Z,974.13
2023-01-08T08:23:24.767Z,974.11
2023-01-08T08:24:24.715Z,974.12
2023-01-08T08:25:24.888Z,974.10
2023-01-08T08:26:25.068Z,974.09
2023-01-08T08:27:24.910Z,974.06
2023-01-08T08:28:24.718Z,974.06
2023-01-08T08:29:24.651Z,974.09
2023-01-08T08:30:24.718Z,974.05
2023-01-08T08:31:25.059Z,974.08
2023-01-08T08:32:24.747Z,974.06
2023-01-08T08:33:24.615Z,974.09
2023-01-08T08:34:24.746Z,974.11
2023-01-08T08:35:24.600Z,974.07
2023-01-08T08:36:24.682Z,974.10
2023-01-08T08:37:24.561Z,974.12
2023-01-08T08:38:24.772Z,974.12
2023-01-08T08:39:24.634Z,974.20
2023-01-08T08:40:24.574Z,974.19
2023-01-08T08:41:24.675Z,974.26
2023-01-08T08:42:24.558Z,974.33
2023-01-08T08:43:24.589Z,974.34
2023-01-08T08:44:24.449Z,974.43
2023-01-08T08:45:24.574Z,974.52
2023-01-08T08:46:24.439Z,974.48
2023-01-08T08:47:24.472Z,974.51
2023-01-08T08:48:24.413Z,974.51
2023-01-08T08:49:24.393Z,974.49
2023-01-08T08:50:24.361Z,974.52
2023-01-08T08:51:24.517Z,974.56
2023-01-08T08:52:24.517Z,974.56
2023-01-08T08:53:25.874Z,974.60
2023-01-08T08:54:24.336Z,974.64
2023-01-08T08:55:24.325Z,974.65
2023-01-08T08:56:24.402Z,974.62
2023-01-08T08:57:24.260Z,974.59
2023-01-08T08:58:24.411Z,974.63
2023-01-08T08:59:24.250Z,974.62
2023-01-08T09:00:24.365Z,974.59
2023-01-08T09:01:24.476Z,974.56
2023-01-08T09:02:24.470Z,974.62
2023-01-08T09:03:24.498Z,974.60
2023-01-08T09:04:24.181Z,974.62
2023-01-08T09:05:24.251Z,974.62
2023-01-08T09:06:24.176Z,974.68
2023-01-08T09:07:24.242Z,974.64
2023-01-08T09:08:24.524Z,974.68
2023-01-08T09:09:24.334Z,974.59
2023-01-08T09:10:24.126Z,974.63
2023-01-08T09:11:24.103Z,974.60
2023-01-08T09:12:24.094Z,974.59
2023-01-08T09:13:24.578Z,974.55
2023-01-08T09:14:24.063Z,974.53
2023-01-08T09:15:24.012Z,974.46
2023-01-08T09:16:24.172Z,974.40
2023-01-08T09:17:24.268Z,974.36
2023-01-08T09:18:24.153Z,974.35
2023-01-08T09:19:24.278Z,974.36
2023-01-08T09:20:24.192Z,974.41
2023-01-08T09:21:23.946Z,974.42
2023-01-08T09:22:24.129Z,974.41
2023-01-08T09:23:23.970Z,974.48
2023-01-08T09:24:23.980Z,974.47
2023-01-08T09:25:23.917Z,974.50
2023-01-08T09:26:24.132Z,974.49
2023-01-08T09:27:23.961Z,974.52
2023-01-08T09:28:23.903Z,974.54
2023-01-08T09:29:23.998Z,974.55
2023-01-08T09:30:23.830Z,974.54
2023-01-08T09:31:23.961Z,974.48
2023-01-08T09:32:23.862Z,974.52
2023-01-08T09:33:23.930Z,974.61
2023-01-08T09:34:23.752Z,974.56
2023-01-08T09:35:23.736Z,974.66
2023-01-08T09:36:23.796Z,974.72
2023-01-08T09:37:23.749Z,974.77
2023-01-08T09:38:23.757Z,974.83
2023-01-08T09:39:23.778Z,974.87
2023-01-08T09:40:23.847Z,974.81
2023-01-08T09:41:23.690Z,974.84
2023-01-08T09:42:23.712Z,974.80
2023-01-08T09:43:24.176Z,974.84
2023-01-08T09:44:23.735Z,974.83
2023-01-08T09:45:27.028Z,974.82
2023-01-08T09:46:23.821Z,974.87
2023-01-08T09:47:23.729Z,974.78
2023-01-08T09:48:23.656Z,974.83
2023-01-08T09:49:23.805Z,974.81
2023-01-08T09:50:24.156Z,974.79
2023-01-08T09:51:24.633Z,974.80
2023-01-08T09:52:23.543Z,974.79
2023-01-08T09:53:23.475Z,974.74
2023-01-08T09:54:23.558Z,974.63
2023-01-08T09:55:23.694Z,974.62
2023-01-08T09:56:23.489Z,974.62
2023-01-08T09:57:23.628Z,974.58
2023-01-08T09:58:23.443Z,974.61
2023-01-08T09:59:23.529Z,974.62
2023-01-08T10:00:23.452Z,974.62
2023-01-08T10:01:23.588Z,974.56
2023-01-08T10:02:23.624Z,974.60
2023-01-08T10:03:23.640Z,974.59
2023-01-08T10:04:23.526Z,974.52
2023-01-08T10:05:23.433Z,974.53
2023-01-08T10:06:23.483Z,974.58
2023-01-08T10:07:23.646Z,974.59
2023-01-08T10:08:23.283Z,974.67
2023-01-08T10:09:23.327Z,974.68
2023-01-08T10:10:23.561Z,974.62
2023-01-08T10:11:23.287Z,974.68
2023-01-08T10:12:23.323Z,974.71
2023-01-08T10:13:23.288Z,974.66
2023-01-08T10:14:23.355Z,974.78
2023-01-08T10:15:23.289Z,974.81
2023-01-08T10:16:23.280Z,974.89
2023-01-08T10:17:23.207Z,974.88
2023-01-08T10:18:23.228Z,974.87
2023-01-08T10:19:23.167Z,974.84
2023-01-08T10:20:23.197Z,974.83
2023-01-08T10:21:23.130Z,974.92
2023-01-08T10:22:23.215Z,974.86
2023-01-08T10:23:23.156Z,974.78
2023-01-08T10:24:23.161Z,974.71
2023-01-08T10:25:23.208Z,974.72
2023-01-08T10:26:23.171Z,974.69
2023-01-08T10:27:23.098Z,974.76
2023-01-08T10:28:23.052Z,974.80
2023-01-08T10:29:23.009Z,974.78
2023-01-08T10:30:23.200Z,974.75
2023-01-08T10:31:23.081Z,974.79
2023-01-08T10:32:23.138Z,974.83
2023-01-08T10:33:22.988Z,974.88
2023-01-08T10:34:23.184Z,974.93
2023-01-08T10:35:23.008Z,974.99
2023-01-08T10:36:22.917Z,974.98
2023-01-08T10:37:22.952Z,974.92
2023-01-08T10:38:22.888Z,974.88
2023-01-08T10:39:22.892Z,974.91
2023-01-08T10:40:23.142Z,974.96
2023-01-08T10:41:22.876Z,975.00
2023-01-08T10:42:22.842Z,975.04
2023-01-08T10:43:22.872Z,974.97
2023-01-08T10:44:22.882Z,974.94
2023-01-08T10:45:22.985Z,974.98
2023-01-08T10:46:22.812Z,974.99
2023-01-08T10:47:23.009Z,975.02
2023-01-08T10:48:22.822Z,975.02
2023-01-08T10:49:22.987Z,975.00
2023-01-08T10:50:22.852Z,975.07
2023-01-08T10:51:22.801Z,975.07
2023-01-08T10:52:22.796Z,975.03
2023-01-08T10:53:22.978Z,974.99
2023-01-08T10:54:22.815Z,974.90
2023-01-08T10:55:22.990Z,974.96
2023-01-08T10:56:22.778Z,974.99
2023-01-08T10:57:22.652Z,974.98
2023-01-08T10:58:22.650Z,974.89
2023-01-08T10:59:22.670Z,974.92
2023-01-08T11:00:22.609Z,974.88
2023-01-08T11:01:22.770Z,974.92
2023-01-08T11:02:22.722Z,974.93
2023-01-08T11:03:22.683Z,974.87
2023-01-08T11:04:22.595Z,974.95
2023-01-08T11:05:22.679Z,974.95
2023-01-08T11:06:22.657Z,974.97
2023-01-08T11:07:22.656Z,975.05
2023-01-08T11:08:23.290Z,975.02
2023-01-08T11:09:22.652Z,975.05
2023-01-08T11:10:22.580Z,975.13
2023-01-08T11:11:22.670Z,975.11
2023-01-08T11:12:22.505Z,975.12
2023-01-08T11:13:22.469Z,975.16
2023-01-08T11:14:22.505Z,975.14
2023-01-08T11:15:22.503Z,975.09
2023-01-08T11:16:22.604Z,975.12
2023-01-08T11:17:22.427Z,975.02
2023-01-08T11:18:22.359Z,975.12
2023-01-08T11:19:22.329Z,975.12
2023-01-08T11:20:22.635Z,975.06
2023-01-08T11:21:22.444Z,975.09
2023-01-08T11:22:22.390Z,975.07
2023-01-08T11:23:22.395Z,974.95
2023-01-08T11:24:22.558Z,974.91
2023-01-08T11:25:22.323Z,974.91
2023-01-08T11:26:22.313Z,974.92
2023-01-08T11:27:22.422Z,974.91
2023-01-08T11:28:22.513Z,974.85
2023-01-08T11:29:22.355Z,974.78
2023-01-08T11:30:22.275Z,974.86
2023-01-08T11:31:22.213Z,974.83
2023-01-08T11:32:22.256Z,974.83
2023-01-08T11:33:22.228Z,974.80
2023-01-08T11:34:22.173Z,974.77
2023-01-08T11:35:22.149Z,974.72
2023-01-08T11:36:22.149Z,974.69
2023-01-08T11:37:22.080Z,974.73
2023-01-08T11:38:22.151Z,974.64
2023-01-08T11:39:22.101Z,974.67
2023-01-08T11:40:22.151Z,974.65
2023-01-08T11:41:22.889Z,974.69
2023-01-08T11:42:22.068Z,974.72
2023-01-08T11:43:22.091Z,974.69
2023-01-08T11:44:22.144Z,974.65
2023-01-08T11:45:22.097Z,974.63
2023-01-08T11:46:22.003Z,974.61
2023-01-08T11:47:21.955Z,974.60
2023-01-08T11:48:22.020Z,974.64
2023-01-08T11:49:22.033Z,974.65
2023-01-08T11:50:21.997Z,974.62
2023-01-08T11:51:22.025Z,974.67
2023-01-08T11:52:21.892Z,974.59
2023-01-08T11:53:21.899Z,974.56
2023-01-08T11:54:22.073Z,974.55
2023-01-08T11:55:21.884Z,974.56
2023-01-08T11:56:21.864Z,974.50
2023-01-08T11:57:21.867Z,974.51
2023-01-08T11:58:21.811Z,974.43
2023-01-08T11:59:21.808Z,974.40
2023-01-08T12:00:22.146Z,974.33
2023-01-08T12:01:21.832Z,974.31
2023-01-08T12:02:21.741Z,974.35
2023-01-08T12:03:21.862Z,974.34
2023-01-08T12:04:21.762Z,974.27
2023-01-08T12:05:21.773Z,974.25
2023-01-08T12:06:21.747Z,974.24
2023-01-08T12:07:21.655Z,974.22
2023-01-08T12:08:21.701Z,974.28
2023-01-08T12:09:21.749Z,974.29
2023-01-08T12:10:21.759Z,974.31
2023-01-08T12:11:21.689Z,974.39
2023-01-08T12:12:21.680Z,974.34
2023-01-08T12:13:21.685Z,974.29
2023-01-08T12:14:21.685Z,974.33
2023-01-08T12:15:21.579Z,974.33
2023-01-08T12:16:21.953Z,974.32
2023-01-08T12:17:24.156Z,974.28
2023-01-08T12:18:22.031Z,974.31
